Latest Weather Observations for Tennant Creek

IDD60801

Issued at 4:51 am CST Thursday 6 October 2022 (issued every 10 minutes, with the page automatically refreshed every 10 minutes)

About weather observations | Map of weather stations | Latest weather observations for NT | Other Formats
Station Details ID: 015135 Name: TENNANT CREEK AIRPORT Lat: -19.64 Lon: 134.18 Height: 375.7 m
Data from the previous 72 hours. | See also: Recent months at Tennant Creek
Date/Time
CST
Temp
°C
App
Temp
°C
Dew
Point
°C
Rel
Hum
%
Delta-T
°C
Wind Press
QNH
hPa
Press
MSL
hPa
Rain since
9am
mm
Dir  Spd
km/h
Gust
km/h
Spd
kts
Gust
kts
06/04:30am 23.9 25.7 21.2 85 1.8 NNW 13 19 7 10 1013.2 1010.6 0.2
06/04:00am 24.1 25.6 21.2 84 1.9 N 15 20 8 11 1012.6 1010.0 0.2
06/03:30am 24.0 25.4 21.1 84 1.9 NNE 15 19 8 10 1012.5 1009.9 0.2
06/03:00am 24.2 25.3 21.3 84 1.9 NNE 17 20 9 11 1012.8 1010.2 0.2
06/02:30am 24.4 24.9 20.9 81 2.3 NNE 19 22 10 12 1012.9 1010.3 0.2
06/02:00am 24.7 25.3 21.0 80 2.5 NNE 19 24 10 13 1013.0 1010.4 0.2
06/01:30am 25.0 25.5 20.9 78 2.7 NNE 19 28 10 15 1013.1 1010.5 0.2
06/01:00am 25.4 26.3 20.9 76 3.0 NNE 17 24 9 13 1013.5 1011.0 0.2
06/12:30am 25.4 26.8 21.1 77 2.9 NNE 15 19 8 10 1013.6 1011.1 0.2
06/12:00am 25.5 27.3 21.2 77 2.9 NNE 13 17 7 9 1014.1 1011.6 0.2
 
Date/Time
CST
Temp
°C
App
Temp
°C
Dew
Point
°C
Rel
Hum
%
Delta-T
°C
Wind Press
QNH
hPa
Press
MSL
hPa
Rain since
9am
mm
Dir  Spd
km/h
Gust
km/h
Spd
kts
Gust
kts
05/11:30pm 26.0 27.7 21.0 74 3.3 NNE 13 17 7 9 1014.2 1011.7 0.2
05/11:00pm 25.9 28.2 21.3 76 3.1 NNE 11 13 6 7 1014.2 1011.7 0.2
05/10:30pm 25.9 28.8 21.8 78 2.8 NNE 9 11 5 6 1014.2 1011.7 0.2
05/10:00pm 26.5 29.4 21.7 75 3.2 ENE 9 9 5 5 1014.2 1011.7 0.2
05/09:30pm 26.8 29.6 21.6 73 3.5 NNE 9 11 5 6 1014.1 1011.6 0.2
05/09:00pm 26.9 29.6 21.4 72 3.7 NNE 9 13 5 7 1013.8 1011.3 0.2
05/08:30pm 27.3 29.6 21.3 69 4.0 NNE 11 15 6 8 1013.5 1011.0 0.2
05/08:00pm 27.6 30.2 21.2 68 4.3 NNE 9 13 5 7 1013.3 1010.7 0.2
05/07:30pm 28.1 30.6 21.1 65 4.7 N 9 11 5 6 1013.0 1010.4 0.2
05/07:00pm 28.5 30.2 21.0 64 5.1 N 13 15 7 8 1012.5 1009.9 0.2
05/06:30pm 29.4 31.2 20.3 58 6.1 N 11 17 6 9 1012.2 1009.6 0.2
05/06:03pm 30.4 31.6 20.0 53 6.9 N 13 19 7 10 1011.8 1009.3 0.2
05/06:00pm 30.6 31.3 19.6 51 7.3 N 15 19 8 10 1011.8 1009.3 0.2
05/05:53pm 30.5 31.8 20.1 53 7.0 N 13 19 7 10 1011.8 1009.3 0.2
05/05:30pm 30.5 31.8 20.1 53 7.0 N 13 17 7 9 1011.8 1009.3 0.2
05/05:00pm 30.7 31.9 19.1 50 7.7 NNW 11 17 6 9 1011.3 1008.8 0.2
05/04:30pm 31.1 31.5 19.8 51 7.5 N 17 22 9 12 1011.2 1008.7 0.2
05/04:00pm 31.0 31.5 20.0 52 7.4 N 17 28 9 15 1011.4 1008.9 0.2
05/03:30pm 30.8 32.2 20.4 54 7.0 N 13 17 7 9 1011.6 1009.1 0.2
05/03:00pm 30.8 31.8 19.5 51 7.5 N 13 22 7 12 1011.8 1009.3 0.2
05/02:30pm 30.5 32.4 19.8 52 7.1 NNE 9 13 5 7 1012.1 1009.5 0.2
05/02:00pm 30.1 31.1 19.5 53 7.0 NNW 13 20 7 11 1012.5 1009.9 0.2
05/01:30pm 29.5 31.3 19.5 55 6.6 WNW 9 17 5 9 1012.9 1010.3 0.2
05/01:00pm 29.2 30.7 19.8 57 6.2 N 11 17 6 9 1013.2 1010.6 0.2
05/12:30pm 28.6 29.8 19.0 56 6.3 NNW 11 19 6 10 1013.7 1011.2 0.2
05/12:00pm 28.1 29.9 21.1 65 4.7 NW 13 20 7 11 1014.4 1011.9 0.2
05/11:30am 26.8 27.8 19.4 64 4.8 NNW 13 19 7 10 1014.7 1012.2 0.2
05/11:00am 25.7 27.0 21.6 78 2.8 N 17 20 9 11 1015.2 1012.6 0.0
05/10:30am 24.6 25.4 21.3 82 2.2 N 19 26 10 14 1015.3 1012.7 0.0
05/10:00am 23.4 24.3 21.5 89 1.3 N 19 26 10 14 1015.4 1012.8 0.0
05/09:30am 22.5 23.3 21.3 93 0.8 NNE 19 26 10 14 1015.2 1012.6 0.0
05/09:00am 21.6 22.0 20.9 96 0.5 NNE 20 26 11 14 1015.5 1012.9 26.6
05/08:30am 21.2 21.5 20.5 96 0.5 N 19 28 10 15 1016.0 1013.5 26.4
05/08:00am 20.8 20.4 20.1 96 0.5 NNE 22 28 12 15 1015.7 1013.1 25.6
05/07:30am 20.4 19.9 19.9 97 0.3 NNE 22 30 12 16 1015.1 1012.5 25.6
05/07:00am 20.3 20.2 19.6 96 0.5 NNE 19 28 10 15 1015.4 1012.8 24.8
05/06:30am 20.2 21.6 19.5 96 0.5 NNE 11 15 6 8 1014.9 1012.3 23.8
05/06:00am 20.2 21.5 19.4 95 0.5 NE 11 15 6 8 1014.5 1012.0 23.6
05/05:30am 20.0 20.4 19.0 94 0.6 NE 15 20 8 11 1013.8 1011.3 23.6
05/05:00am 20.2 20.2 19.0 93 0.8 ENE 17 22 9 12 1013.1 1010.5 23.6
05/04:30am 20.2 20.3 19.2 94 0.6 ENE 17 19 9 10 1013.4 1010.8 23.6
05/04:00am 20.1 19.7 19.3 95 0.5 NE 20 26 11 14 1013.5 1011.0 23.6
05/03:30am 20.0 19.7 19.5 97 0.3 E 20 24 11 13 1013.3 1010.7 22.8
05/03:15am 20.1 20.8 19.6 97 0.3 E 15 19 8 10 1013.8 1011.3 22.0
05/03:00am 20.2 21.3 19.7 97 0.3 ENE 13 17 7 9 1013.8 1011.3 21.6
05/02:51am 20.3 21.7 19.6 96 0.5 E 11 13 6 7 1013.8 1011.3 18.2
05/02:30am 20.2 20.5 19.5 96 0.5 ENE 17 24 9 13 1013.5 1011.0 16.4
05/02:26am 20.2 20.5 19.5 96 0.5 ENE 17 20 9 11 1013.5 1011.0 15.8
05/02:07am 20.2 21.8 19.2 94 0.6 SSE 9 15 5 8 1014.2 1011.7 14.2
05/02:00am 20.3 21.5 19.1 93 0.8 ESE 11 17 6 9 1014.3 1011.8 12.4
05/01:31am 20.5 21.4 19.2 92 0.8 E 13 19 7 10 1014.3 1011.8 12.4
05/01:30am 20.5 21.4 19.3 93 0.8 ENE 13 19 7 10 1014.3 1011.8 12.4
05/01:17am 20.3 20.4 19.1 93 0.8 NE 17 20 9 11 1014.1 1011.6 12.4
05/01:00am 20.5 20.2 19.2 92 0.8 ENE 19 26 10 14 1014.1 1011.6 12.0
05/12:30am 20.1 20.0 18.8 92 0.8 ENE 17 20 9 11 1014.3 1011.8 12.0
05/12:00am 20.0 20.6 18.7 92 0.8 SE 13 17 7 9 1014.4 1011.9 12.0
 
Date/Time
CST
Temp
°C
App
Temp
°C
Dew
Point
°C
Rel
Hum
%
Delta-T
°C
Wind Press
QNH
hPa
Press
MSL
hPa
Rain since
9am
mm
Dir  Spd
km/h
Gust
km/h
Spd
kts
Gust
kts
04/11:30pm 20.0 19.3 18.7 92 0.8 ESE 20 24 11 13 1014.3 1011.8 12.0
04/11:00pm 20.1 20.8 18.9 93 0.8 ESE 13 20 7 11 1015.0 1012.4 12.0
04/10:44pm 20.0 18.7 19.0 94 0.6 ENE 24 33 13 18 1014.4 1011.9 12.0
04/10:32pm 19.6 18.6 18.9 96 0.4 E 22 35 12 19 1013.6 1011.1 11.6
04/10:30pm 19.6 19.6 18.9 96 0.4 ENE 17 35 9 19 1013.8 1011.3 11.6
04/10:26pm 19.6 20.7 18.8 95 0.5 N 11 19 6 10 1014.6 1012.1 10.8
04/10:00pm 20.3 21.1 19.0 92 0.8 SSE 13 19 7 10 1015.3 1012.7 8.4
04/09:46pm 20.5 20.9 19.0 91 1.0 ESE 15 20 8 11 1013.9 1011.4 8.4
04/09:30pm 20.4 20.8 18.9 91 1.0 ESE 15 19 8 10 1013.5 1011.0 8.4
04/09:00pm 20.4 20.2 18.5 89 1.2 SSE 17 22 9 12 1013.4 1010.8 8.4
04/08:30pm 21.4 22.1 19.7 90 1.1 SSE 15 19 8 10 1013.8 1011.3 8.4
04/08:17pm 21.8 22.0 20.1 90 1.1 SSE 19 28 10 15 1013.5 1011.0 8.4
04/08:14pm 21.8 21.8 20.1 90 1.1 S 20 28 11 15 1013.5 1011.0 8.4
04/08:00pm 22.0 22.2 20.1 89 1.2 WSW 19 35 10 19 1014.4 1011.9 8.2
04/07:59pm 22.2 22.3 19.9 87 1.5 WSW 19 35 10 19 1014.5 1012.0 7.8
04/07:51pm 23.3 24.1 19.9 81 2.2 SE 15 24 8 13 1012.8 1010.2 6.8
04/07:50pm 23.3 24.1 19.9 81 2.2 ESE 15 24 8 13 1012.5 1009.9 6.8
04/07:30pm 23.4 23.1 19.5 79 2.5 E 20 26 11 14 1010.3 1007.7 6.6
04/07:00pm 23.7 23.9 19.4 77 2.8 ESE 17 20 9 11 1010.9 1008.3 6.6
04/06:30pm 23.9 24.3 19.8 78 2.7 ESE 17 20 9 11 1010.6 1008.0 6.6
04/06:00pm 24.1 25.0 20.0 78 2.7 SE 15 19 8 10 1010.5 1007.9 6.6
04/05:30pm 24.4 24.1 19.5 74 3.2 ESE 20 28 11 15 1010.1 1007.5 6.6
04/05:00pm 23.1 25.0 20.6 86 1.6 ENE 11 15 6 8 1010.7 1008.1 6.6
04/04:52pm 22.6 23.3 20.5 88 1.4 E 17 22 9 12 1010.8 1008.2 6.6
04/04:44pm 21.8 22.3 20.1 90 1.1 ENE 17 26 9 14 1010.7 1008.1 6.6
04/04:30pm 21.9 20.2 18.9 83 1.9 W 26 52 14 28 1011.2 1008.7 4.2
04/04:25pm 21.1 19.1 17.5 80 2.3 SSW 24 52 13 28 1012.3 1009.7 1.6
04/04:22pm 23.3 21.5 18.8 76 2.9 S 26 41 14 22 1011.3 1008.8 0.6
04/04:00pm 26.4 23.9 16.1 53 6.4 SSW 24 41 13 22 1009.3 1006.7 0.0
04/03:56pm 26.8 25.3 15.2 49 7.1 SW 17 37 9 20 1009.5 1006.9 0.0
04/03:53pm 28.8 28.2 14.6 42 8.7 W 11 32 6 17 1009.7 1007.1 0.0
04/03:30pm 32.4 30.2 14.5 33 11.1 ENE 19 28 10 15 1008.9 1006.4 0.0
04/03:28pm 32.3 30.5 14.4 33 11.1 ENE 17 28 9 15 1008.9 1006.4 0.0
04/03:00pm 32.6 30.7 14.2 32 11.4 E 17 26 9 14 1009.4 1006.8 0.0
04/02:30pm 33.1 32.1 14.7 33 11.5 N 13 19 7 10 1010.2 1007.6 0.0
04/02:00pm 32.6 31.6 14.7 34 11.2 ESE 13 19 7 10 1010.9 1008.3 0.0
04/01:30pm 32.3 30.9 14.4 33 11.1 E 15 26 8 14 1011.3 1008.8 0.0
04/01:00pm 31.1 29.4 14.7 37 10.2 ESE 17 26 9 14 1011.7 1009.2 0.0
04/12:30pm 30.8 29.3 15.2 38 9.7 SE 17 28 9 15 1012.5 1009.9 0.0
04/12:00pm 29.9 28.4 15.2 40 9.2 S 17 24 9 13 1012.9 1010.3 0.0
04/11:30am 28.1 26.2 15.7 46 7.7 SSE 20 28 11 15 1013.6 1011.1 0.0
04/11:00am 27.5 25.7 16.1 49 7.1 S 20 30 11 16 1014.0 1011.5 0.0
04/10:30am 27.3 24.2 16.6 52 6.7 SSW 28 35 15 19 1014.6 1012.1 0.0
04/10:00am 26.6 24.6 16.5 54 6.3 S 22 28 12 15 1014.6 1012.1 0.0
04/09:30am 25.4 23.4 16.5 57 5.6 S 22 32 12 17 1015.2 1012.6 0.0
04/09:00am 24.0 21.6 16.5 63 4.7 S 24 32 13 17 1015.1 1012.5 0.0
04/08:30am 23.8 20.7 16.6 64 4.5 SSW 28 37 15 20 1014.4 1011.9 0.0
04/08:00am 23.5 21.1 16.5 65 4.3 SSW 24 37 13 20 1014.2 1011.7 0.0
04/07:30am 23.4 22.2 17.6 70 3.7 SW 20 32 11 17 1014.2 1011.7 0.0
04/07:00am 23.0 22.0 17.5 71 3.5 WSW 19 28 10 15 1013.9 1011.4 0.0
04/06:30am 23.4 21.9 16.4 64 4.3 WSW 19 28 10 15 1013.5 1011.0 0.0
04/06:00am 23.8 24.6 16.3 63 4.6 ESE 7 9 4 5 1012.1 1009.5 0.0
04/05:30am 23.7 23.4 16.5 64 4.5 ESE 13 15 7 8 1011.2 1008.7 0.0
04/05:00am 23.9 24.0 16.4 63 4.7 ESE 11 13 6 7 1010.8 1008.2 0.0
04/04:30am 24.0 24.5 16.5 63 4.7 ENE 9 13 5 7 1010.6 1008.0 0.0
04/04:00am 24.1 25.1 16.4 62 4.8 SE 6 9 3 5 1010.4 1007.8 0.0
04/03:30am 23.9 23.2 16.4 63 4.7 ESE 15 19 8 10 1010.1 1007.5 0.0
04/03:00am 24.0 23.6 16.3 62 4.8 SSE 13 20 7 11 1009.6 1007.0 0.0
04/02:30am 24.1 22.7 16.6 63 4.7 SSE 19 28 10 15 1009.4 1006.8 0.0
04/02:00am 24.5 23.1 16.5 61 5.0 S 19 26 10 14 1009.9 1007.3 0.0
04/01:30am 25.4 23.9 16.3 57 5.7 SW 19 33 10 18 1010.3 1007.7 0.0
04/01:00am 27.4 24.9 13.4 42 8.4 SSW 19 28 10 15 1010.1 1007.5 0.0
04/12:30am 28.3 25.8 9.6 31 10.6 N 13 15 7 8 1009.8 1007.2 0.0
04/12:00am 28.0 25.0 9.3 31 10.5 NNE 15 19 8 10 1009.7 1007.1 0.0
 
Date/Time
CST
Temp
°C
App
Temp
°C
Dew
Point
°C
Rel
Hum
%
Delta-T
°C
Wind Press
QNH
hPa
Press
MSL
hPa
Rain since
9am
mm
Dir  Spd
km/h
Gust
km/h
Spd
kts
Gust
kts
03/11:30pm 26.8 24.6 9.2 33 9.8 NNE 11 13 6 7 1009.9 1007.3 0.0
03/11:00pm 27.5 25.3 9.3 32 10.2 NE 11 13 6 7 1010.1 1007.5 0.0
03/10:30pm 27.8 25.1 9.1 31 10.5 NNE 13 15 7 8 1010.1 1007.5 0.0
03/10:00pm 28.1 25.5 9.4 31 10.5 NNE 13 15 7 8 1010.0 1007.4 0.0
03/09:30pm 28.7 26.1 9.4 30 10.9 NE 13 15 7 8 1009.8 1007.2 0.0
03/09:00pm 29.4 26.5 9.5 29 11.3 NNE 15 19 8 10 1009.8 1007.2 0.0
03/08:30pm 29.6 26.7 9.7 29 11.4 NNE 15 17 8 9 1009.5 1006.9 0.0
03/08:00pm 29.7 27.2 9.8 29 11.4 NNE 13 15 7 8 1009.4 1006.8 0.0
03/07:30pm 30.6 27.8 10.0 28 11.9 NE 15 17 8 9 1009.0 1006.5 0.0
03/07:00pm 31.4 29.3 9.6 26 12.5 NNE 11 13 6 7 1008.6 1006.0 0.0
03/06:30pm 32.8 30.7 9.6 24 13.4 N 11 15 6 8 1008.3 1005.7 0.0
03/06:00pm 33.6 31.5 9.6 23 14.0 N 11 15 6 8 1008.2 1005.6 0.0
03/05:30pm 34.3 31.0 9.5 22 14.4 NNW 17 26 9 14 1007.8 1005.2 0.0
03/05:00pm 34.1 31.5 9.4 22 14.3 NW 13 20 7 11 1007.5 1004.9 0.0
03/04:30pm 35.7 31.8 9.3 20 15.4 WNW 20 32 11 17 1007.3 1004.7 0.0
03/04:00pm 35.1 32.4 8.8 20 15.2 N 13 24 7 13 1007.3 1004.7 0.0
03/03:30pm 35.3 32.6 8.9 20 15.3 NNW 13 30 7 16 1007.4 1004.8 0.0
03/03:00pm 35.9 33.7 9.4 20 15.5 WNW 11 20 6 11 1007.6 1005.0 0.0
03/02:30pm 34.7 32.2 8.4 20 15.1 N 11 20 6 11 1007.8 1005.2 0.0
03/02:00pm 35.0 33.0 8.7 20 15.1 SSW 9 15 5 8 1008.2 1005.6 0.0
03/01:30pm 34.3 31.4 8.1 20 14.9 WNW 13 22 7 12 1008.8 1006.3 0.0
03/01:00pm 34.0 31.2 8.6 21 14.5 NNE 13 22 7 12 1009.6 1007.0 0.0
03/12:30pm 33.1 30.5 7.9 21 14.2 N 11 19 6 10 1010.2 1007.6 0.0
03/12:00pm 33.8 31.6 7.7 20 14.7 NNW 9 15 5 8 1010.8 1008.2 0.0
03/11:30am 32.4 30.1 7.3 21 14.0 NNE 9 19 5 10 1011.2 1008.7 0.0
03/11:00am 32.0 29.0 7.6 22 13.6 ENE 13 20 7 11 1011.8 1009.3 0.0
03/10:30am 32.0 29.5 8.3 23 13.4 N 11 17 6 9 1012.3 1009.7 0.0
03/10:00am 30.7 28.2 8.4 25 12.5 NNW 11 17 6 9 1012.6 1010.0 0.0
03/09:30am 30.5 27.6 8.3 25 12.4 NNE 13 17 7 9 1012.9 1010.3 0.0
03/09:00am 30.2 27.5 9.1 27 12.0 NNE 13 19 7 10 1013.0 1010.4 0.0
03/08:30am 29.1 27.3 9.3 29 11.2 NE 9 11 5 6 1013.0 1010.4 0.0
03/08:00am 27.5 25.8 9.8 33 10.0 NE 9 13 5 7 1012.9 1010.3 0.0
03/07:30am 25.2 23.9 9.9 38 8.6 ENE 7 7 4 4 1012.6 1010.0 0.0
03/07:00am 21.4 20.2 9.6 47 6.5 ENE 6 7 3 4 1012.3 1009.7 0.0
03/06:30am 20.9 19.3 8.9 46 6.5 ENE 7 9 4 5 1011.9 1009.4 0.0
03/06:00am 21.0 19.2 9.3 47 6.4 ENE 9 11 5 6 1011.5 1009.0 0.0
03/05:30am 19.9 18.0 9.2 50 5.8 NE 9 9 5 5 1011.4 1008.9 0.0
03/05:00am 19.5 18.4 10.8 57 4.8 NE 7 7 4 4 1011.2 1008.7 0.0

Other formats

Comma delimited format used in spreadsheet applications
http://www.bom.gov.au/fwo/IDD60801/IDD60801.94238.axf

JavaScript Object Notation format (JSON) in row-major order
http://www.bom.gov.au/fwo/IDD60801/IDD60801.94238.json

Data quality

Most of these data are generated automatically and are frequently updated. Quality checks on data are not normally performed. It is possible for incorrect values to appear. Refer to information at About Latest Weather Observations and please check the disclaimer before using these data.